Time;durP1;ratioP1;P1;durP2;ratioP2;P2;SDS_P1;SDS_P2;PMS_P1;PMS_P2;Temp;Humidity;BMP_temperature;BMP_pressure;BME280_temperature;BME280_humidity;BME280_pressure;Samples;Min_cycle;Max_cycle;Signal;HPM_P1;HPM_P2
2024/03/22 00:02:09;;;;;;;19.20;10.70;;;;;;;3.68;67.51;99761.71;107322;1257;60339;-38
2024/03/22 00:04:37;;;;;;;18.10;10.30;;;;;;;3.63;67.67;99761.17;107224;1256;61174;-38
2024/03/22 00:07:04;;;;;;;16.50;9.40;;;;;;;3.59;67.76;99755.58;107319;1257;73996;-38
2024/03/22 00:09:32;;;;;;;19.60;9.50;;;;;;;3.57;67.62;99752.70;107210;1257;67296;-38
2024/03/22 00:11:59;;;;;;;16.80;10.20;;;;;;;3.53;67.81;99750.91;107116;1257;71457;-38
2024/03/22 00:14:26;;;;;;;17.30;10.50;;;;;;;3.49;67.77;99745.55;107127;1257;61199;-38
2024/03/22 00:16:54;;;;;;;13.40;8.60;;;;;;;3.45;67.84;99742.66;107161;1256;61225;-38
2024/03/22 00:19:21;;;;;;;14.30;9.40;;;;;;;3.48;67.80;99743.98;107156;1257;73773;-38
2024/03/22 00:21:49;;;;;;;15.10;9.60;;;;;;;3.54;67.58;99743.27;107161;1257;66653;-38
2024/03/22 00:24:16;;;;;;;16.80;9.60;;;;;;;3.53;67.85;99740.30;107133;1257;72728;-38
2024/03/22 00:26:43;;;;;;;14.60;9.40;;;;;;;3.50;67.67;99741.31;107207;1258;61297;-38
2024/03/22 00:29:15;;;;;;;16.40;9.40;;;;;;;3.49;67.74;99740.36;107233;1256;61115;-38
2024/03/22 00:31:42;;;;;;;13.20;8.60;;;;;;;3.48;67.67;99740.23;107095;1257;73626;-38
2024/03/22 00:34:10;;;;;;;17.90;9.60;;;;;;;3.46;67.66;99738.26;107283;1257;66828;-38
2024/03/22 00:36:37;;;;;;;18.30;10.40;;;;;;;3.41;67.60;99737.66;107248;1257;72697;-38
2024/03/22 00:39:05;;;;;;;18.50;9.60;;;;;;;3.37;67.43;99736.33;107250;1257;60977;-38
2024/03/22 00:41:32;;;;;;;18.70;9.80;;;;;;;3.33;67.50;99742.04;107269;1257;60021;-38
2024/03/22 00:43:59;;;;;;;16.60;9.30;;;;;;;3.30;67.72;99743.45;107249;1257;74733;-38
2024/03/22 00:46:27;;;;;;;13.70;9.50;;;;;;;3.26;67.75;99742.72;107231;1257;67930;-38
2024/03/22 00:48:54;;;;;;;17.50;10.30;;;;;;;3.21;67.68;99742.61;107218;1260;71800;-38
2024/03/22 00:51:22;;;;;;;17.20;9.70;;;;;;;3.18;67.90;99740.34;107280;1257;61346;-38
2024/03/22 00:53:49;;;;;;;14.50;8.40;;;;;;;3.19;68.16;99741.27;107277;1258;61087;-38
2024/03/22 00:56:17;;;;;;;13.90;9.10;;;;;;;3.23;67.99;99736.52;107270;1257;74636;-38
2024/03/22 00:58:44;;;;;;;14.10;8.80;;;;;;;3.25;68.23;99737.45;107288;1257;66411;-38
2024/03/22 01:01:11;;;;;;;13.40;9.10;;;;;;;3.24;68.37;99736.80;107233;1257;71538;-38
2024/03/22 01:03:39;;;;;;;20.70;10.00;;;;;;;3.24;68.17;99736.29;107292;1257;61150;-38
2024/03/22 01:06:07;;;;;;;16.40;9.60;;;;;;;3.24;68.08;99729.38;107221;1256;61305;-38
2024/03/22 01:08:34;;;;;;;13.70;9.80;;;;;;;3.23;68.36;99730.79;107275;1257;74629;-38
2024/03/22 01:11:02;;;;;;;16.10;9.30;;;;;;;3.22;68.43;99729.79;107284;1260;67662;-38
2024/03/22 01:13:29;;;;;;;20.90;11.30;;;;;;;3.19;68.28;99728.35;107271;1257;71532;-38
2024/03/22 01:15:57;;;;;;;16.10;10.90;;;;;;;3.16;67.82;99728.11;107279;1256;61330;-38
2024/03/22 01:18:24;;;;;;;21.10;11.30;;;;;;;3.11;67.78;99726.03;107293;1260;60449;-38
2024/03/22 01:20:51;;;;;;;21.40;11.30;;;;;;;3.05;67.73;99729.02;107214;1257;74033;-38
2024/03/22 01:23:19;;;;;;;16.40;10.80;;;;;;;3.00;67.79;99727.91;107154;1256;66380;-38
2024/03/22 01:25:46;;;;;;;25.20;12.10;;;;;;;2.96;68.08;99729.70;107157;1257;72659;-38
2024/03/22 01:28:14;;;;;;;21.80;11.30;;;;;;;3.00;68.19;99731.05;107196;1257;61274;-38
2024/03/22 01:30:42;;;;;;;19.80;11.00;;;;;;;3.07;68.09;99728.63;107127;1257;60033;-38
2024/03/22 01:33:10;;;;;;;18.90;11.60;;;;;;;3.10;67.97;99729.58;107219;1257;74616;-38
2024/03/22 01:35:37;;;;;;;18.10;11.70;;;;;;;3.09;68.04;99725.42;107130;1256;66739;-38
2024/03/22 01:38:05;;;;;;;21.90;12.60;;;;;;;3.09;68.00;99724.35;107222;1260;71706;-38
2024/03/22 01:40:32;;;;;;;23.60;13.20;;;;;;;3.08;67.77;99721.75;107117;1257;61361;-38
2024/03/22 01:42:59;;;;;;;20.40;12.30;;;;;;;3.04;67.51;99721.55;107182;1256;61458;-38
2024/03/22 01:45:27;;;;;;;20.10;13.10;;;;;;;2.98;67.84;99721.89;107240;1257;74693;-38
2024/03/22 01:47:55;;;;;;;19.60;12.40;;;;;;;2.93;68.11;99726.80;107216;1257;67926;-38
2024/03/22 01:50:23;;;;;;;25.10;14.20;;;;;;;2.89;68.35;99724.88;107274;1260;71962;-38
2024/03/22 01:52:50;;;;;;;20.10;14.00;;;;;;;2.83;68.57;99720.77;107241;1257;61250;-38
2024/03/22 01:55:18;;;;;;;22.80;13.50;;;;;;;2.73;69.03;99718.77;107219;1255;61224;-38
2024/03/22 01:57:48;;;;;;;21.50;12.90;;;;;;;2.70;69.30;99722.44;107171;1259;73430;-38
2024/03/22 02:00:16;;;;;;;23.10;13.80;;;;;;;2.73;69.67;99725.36;107302;1257;67912;-38
2024/03/22 02:02:43;;;;;;;20.40;13.30;;;;;;;2.74;69.82;99725.23;107257;1257;71031;-38
2024/03/22 02:05:12;;;;;;;22.10;13.80;;;;;;;2.69;69.83;99724.48;107271;1256;61276;-38
2024/03/22 02:07:39;;;;;;;21.20;14.00;;;;;;;2.65;69.78;99720.71;107321;1256;61317;-38
2024/03/22 02:10:07;;;;;;;20.50;14.10;;;;;;;2.63;69.93;99719.92;107310;1256;74810;-38
2024/03/22 02:12:35;;;;;;;21.40;13.80;;;;;;;2.63;70.20;99720.63;107252;1256;67678;-38
2024/03/22 02:15:03;;;;;;;21.60;14.70;;;;;;;2.62;70.15;99715.81;107121;1257;72698;-38
2024/03/22 02:17:31;;;;;;;23.20;14.20;;;;;;;2.59;70.14;99715.35;107147;1256;61291;-38
2024/03/22 02:19:59;;;;;;;24.50;14.80;;;;;;;2.55;70.02;99718.23;107273;1256;61151;-38
2024/03/22 02:22:27;;;;;;;25.00;14.70;;;;;;;2.51;69.86;99715.58;107252;1257;73818;-38
2024/03/22 02:24:54;;;;;;;19.70;13.30;;;;;;;2.49;70.07;99714.86;107174;1257;67990;-38
2024/03/22 02:27:21;;;;;;;20.20;13.10;;;;;;;2.53;69.98;99715.25;107183;1257;71412;-38
2024/03/22 02:29:49;;;;;;;25.90;14.20;;;;;;;2.61;69.92;99717.83;107181;1256;61314;-38
2024/03/22 02:32:16;;;;;;;21.60;12.60;;;;;;;2.65;70.04;99719.86;107207;1256;61289;-38
2024/03/22 02:34:44;;;;;;;25.40;15.10;;;;;;;2.66;70.01;99715.02;107255;1256;74734;-38
2024/03/22 02:37:28;;;;;;;22.10;14.80;;;;;;;2.66;69.89;99716.88;107161;1260;67622;-38
2024/03/22 02:39:55;;;;;;;30.40;15.80;;;;;;;2.66;69.77;99719.52;107202;1258;72662;-38
2024/03/22 02:42:22;;;;;;;28.40;16.80;;;;;;;2.65;69.29;99717.88;107258;1257;62923;-38
2024/03/22 02:44:50;;;;;;;26.10;16.70;;;;;;;2.62;69.02;99718.24;107269;1256;59977;-38
2024/03/22 02:47:17;;;;;;;27.30;17.30;;;;;;;2.59;69.05;99713.59;107250;1257;74635;-38
2024/03/22 02:49:46;;;;;;;29.40;17.80;;;;;;;2.57;69.14;99712.77;107241;1257;67588;-38
2024/03/22 02:52:13;;;;;;;31.70;17.90;;;;;;;2.54;69.21;99712.89;107268;1257;71365;-38
2024/03/22 02:54:41;;;;;;;28.30;16.70;;;;;;;2.51;69.24;99713.37;107252;1260;61282;-38
2024/03/22 02:57:08;;;;;;;25.40;16.30;;;;;;;2.46;69.64;99714.16;107265;1257;60498;-38
2024/03/22 02:59:36;;;;;;;26.80;16.00;;;;;;;2.44;69.80;99704.57;107227;1256;74573;-38
2024/03/22 03:02:04;;;;;;;23.90;16.00;;;;;;;2.54;70.04;99709.73;107164;1256;66624;-38
2024/03/22 03:04:31;;;;;;;27.60;16.80;;;;;;;2.57;70.02;99705.50;107175;1257;72712;-38
2024/03/22 03:07:00;;;;;;;28.40;16.80;;;;;;;2.58;70.14;99705.09;107183;1258;61263;-38
2024/03/22 03:09:27;;;;;;;25.50;16.60;;;;;;;2.59;69.80;99706.74;107169;1257;61125;-38
2024/03/22 03:11:55;;;;;;;30.00;18.10;;;;;;;2.59;69.94;99704.77;107262;1256;74624;-38
2024/03/22 03:14:22;;;;;;;26.10;17.30;;;;;;;2.57;69.88;99704.42;107250;1256;65318;-38
2024/03/22 03:16:50;;;;;;;24.90;16.30;;;;;;;2.54;69.71;99700.62;107142;1257;71467;-38
2024/03/22 03:19:17;;;;;;;29.30;18.20;;;;;;;2.49;69.44;99700.93;107245;1257;61288;-38
2024/03/22 03:21:44;;;;;;;31.00;18.10;;;;;;;2.45;69.22;99699.73;107291;1256;61230;-38
2024/03/22 03:24:12;;;;;;;31.50;17.30;;;;;;;2.40;69.33;99700.36;107251;1256;73917;-38
2024/03/22 03:26:39;;;;;;;24.90;16.60;;;;;;;2.36;69.40;99703.09;107261;1260;66542;-38
2024/03/22 03:29:06;;;;;;;29.10;16.80;;;;;;;2.34;69.31;99700.91;107572;1253;72778;-38
2024/03/22 03:31:34;;;;;;;27.70;16.00;;;;;;;2.37;69.23;99698.46;107558;1257;61119;-38
2024/03/22 03:34:01;;;;;;;24.50;16.00;;;;;;;2.41;69.28;99695.76;107557;1254;61091;-38
2024/03/22 03:36:29;;;;;;;30.40;16.60;;;;;;;2.43;69.19;99696.52;107550;1253;73340;-38
2024/03/22 03:38:56;;;;;;;25.20;16.60;;;;;;;2.41;69.00;99696.50;107589;1254;66424;-38
2024/03/22 03:41:24;;;;;;;28.20;16.50;;;;;;;2.38;68.94;99700.08;107529;1254;72963;-38
2024/03/22 03:43:51;;;;;;;27.00;15.80;;;;;;;2.37;68.76;99703.85;107554;1254;61198;-38
2024/03/22 03:46:18;;;;;;;25.40;16.90;;;;;;;2.36;68.88;99705.33;107523;1253;61215;-38
2024/03/22 03:48:46;;;;;;;27.60;16.10;;;;;;;2.34;68.89;99703.15;107511;1252;73885;-38
2024/03/22 03:51:13;;;;;;;31.60;17.80;;;;;;;2.32;68.62;99705.45;107520;1254;66726;-38
2024/03/22 03:53:41;;;;;;;26.00;17.10;;;;;;;2.24;68.73;99707.37;107500;1254;72702;-38
2024/03/22 03:56:08;;;;;;;30.00;17.10;;;;;;;2.15;68.69;99704.46;107596;1257;61298;-38
2024/03/22 03:58:35;;;;;;;25.80;15.60;;;;;;;2.10;68.94;99709.42;107599;1253;61115;-38
2024/03/22 04:01:07;;;;;;;30.20;15.40;;;;;;;2.11;68.97;99705.61;107565;1254;74646;-38
2024/03/22 04:03:35;;;;;;;26.00;14.50;;;;;;;2.19;68.98;99707.82;107635;1253;67577;-37
2024/03/22 04:06:02;;;;;;;30.50;16.10;;;;;;;2.23;69.10;99712.20;107602;1253;72678;-37
2024/03/22 04:08:33;;;;;;;26.10;16.30;;;;;;;2.21;69.30;99710.20;107578;1253;61246;-38
2024/03/22 04:11:00;;;;;;;27.10;16.10;;;;;;;2.21;69.21;99715.13;107466;1252;192890;-38
2024/03/22 04:15:45;;;;;;;23.40;16.20;;;;;;;2.22;69.09;99706.65;104139;1292;600882;-37
2024/03/22 04:18:13;;;;;;;28.20;16.40;;;;;;;2.21;69.14;99709.94;106579;1272;59641;-37
2024/03/22 04:20:40;;;;;;;28.70;15.90;;;;;;;2.20;69.13;99709.09;106616;1267;59536;-37
2024/03/22 04:23:07;;;;;;;27.20;16.10;;;;;;;2.21;69.12;99708.60;106478;1266;73063;-38
2024/03/22 04:25:35;;;;;;;25.00;15.90;;;;;;;2.21;69.32;99708.55;106497;1266;66609;-37
2024/03/22 04:28:03;;;;;;;26.40;15.80;;;;;;;2.21;69.18;99703.67;106589;1268;71522;-38
2024/03/22 04:30:30;;;;;;;28.90;16.00;;;;;;;2.18;69.31;99704.46;106622;1270;134813;-38
2024/03/22 04:32:57;;;;;;;21.00;13.70;;;;;;;2.26;69.51;99704.70;106713;1264;59526;-38
2024/03/22 04:35:25;;;;;;;27.30;14.30;;;;;;;2.36;69.55;99703.86;106707;1267;71826;-38
2024/03/22 04:37:52;;;;;;;29.10;14.90;;;;;;;2.39;69.73;99706.80;106751;1263;66624;-38
2024/03/22 04:40:20;;;;;;;23.70;14.90;;;;;;;2.41;69.72;99713.09;106743;1263;72715;-38
2024/03/22 04:42:47;;;;;;;27.00;14.20;;;;;;;2.41;69.99;99712.87;106714;1267;60444;-38
2024/03/22 04:45:15;;;;;;;26.50;14.30;;;;;;;2.42;70.24;99713.92;106742;1264;60312;-38
2024/03/22 04:47:43;;;;;;;28.80;15.30;;;;;;;2.45;70.34;99709.53;106737;1264;73908;-37
2024/03/22 04:50:13;;;;;;;26.20;14.80;;;;;;;2.47;70.67;99710.46;106771;1264;67704;-38
2024/03/22 04:52:40;;;;;;;25.40;14.90;;;;;;;2.48;70.59;99706.52;106757;1267;71129;-37
2024/03/22 04:55:08;;;;;;;21.30;14.50;;;;;;;2.49;70.82;99706.41;106741;1263;60425;-38
2024/03/22 04:57:35;;;;;;;20.70;14.20;;;;;;;2.49;70.79;99708.75;106753;1270;60053;-38
2024/03/22 05:00:03;;;;;;;26.20;14.70;;;;;;;2.55;70.89;99709.13;106730;1266;72717;-38
2024/03/22 05:02:30;;;;;;;22.00;14.50;;;;;;;2.67;71.06;99707.45;106756;1264;67874;-38
2024/03/22 05:04:58;;;;;;;24.80;14.50;;;;;;;2.75;71.08;99707.11;106685;1264;71394;-38
2024/03/22 05:07:25;;;;;;;26.10;15.20;;;;;;;2.80;71.08;99705.19;106626;1264;60451;-38
2024/03/22 05:09:53;;;;;;;28.90;15.50;;;;;;;2.87;71.25;99704.95;106646;1263;60031;-37
2024/03/22 05:12:20;;;;;;;30.10;16.10;;;;;;;2.93;71.31;99700.16;106694;1264;72560;-38
2024/03/22 05:14:47;;;;;;;25.10;15.70;;;;;;;2.97;71.37;99703.91;106681;1266;68115;-38
2024/03/22 05:17:14;;;;;;;24.90;16.40;;;;;;;3.01;71.53;99707.52;106684;1266;72714;-38
2024/03/22 05:19:42;;;;;;;27.30;17.20;;;;;;;3.04;71.69;99704.95;106660;1266;60501;-38
2024/03/22 05:22:09;;;;;;;31.10;17.40;;;;;;;3.08;72.08;99707.22;106667;1266;60430;-38
2024/03/22 05:24:37;;;;;;;28.50;16.30;;;;;;;3.21;72.24;99709.45;106716;1270;73904;-38
2024/03/22 05:27:04;;;;;;;22.80;16.40;;;;;;;3.35;72.23;99707.84;106712;1266;67112;-38
2024/03/22 05:29:32;;;;;;;27.10;16.90;;;;;;;3.44;72.54;99708.77;106625;1267;72684;-38
2024/03/22 05:32:00;;;;;;;30.50;18.20;;;;;;;3.53;72.88;99708.61;106691;1266;60444;-38
2024/03/22 05:34:27;;;;;;;26.20;17.30;;;;;;;3.63;72.92;99706.98;106780;1266;59924;-38
2024/03/22 05:36:55;;;;;;;31.60;18.50;;;;;;;3.72;72.85;99704.98;106700;1265;73813;-38
2024/03/22 05:39:22;;;;;;;28.20;18.70;;;;;;;3.80;72.71;99704.89;106737;1265;67900;-38
2024/03/22 05:41:50;;;;;;;25.50;17.90;;;;;;;3.89;72.93;99706.18;106696;1266;71502;-38
2024/03/22 05:44:18;;;;;;;26.60;17.70;;;;;;;3.98;73.09;99707.55;106726;1266;60418;-38
2024/03/22 05:46:45;;;;;;;24.00;16.90;;;;;;;4.13;73.41;99711.73;106927;1263;60559;-38
2024/03/22 05:49:13;;;;;;;28.30;17.90;;;;;;;4.26;73.68;99700.45;106879;1263;72601;-38
2024/03/22 05:51:40;;;;;;;30.70;17.80;;;;;;;4.45;73.99;99706.73;106860;1263;67965;-38
2024/03/22 05:54:07;;;;;;;29.70;17.30;;;;;;;4.57;74.06;99706.46;106847;1263;71535;-38
2024/03/22 05:56:35;;;;;;;26.70;16.50;;;;;;;4.69;74.23;99710.33;106848;1263;60438;-38
2024/03/22 05:59:03;;;;;;;25.80;15.90;;;;;;;4.81;74.27;99709.33;106759;1262;60441;-38
2024/03/22 06:01:31;;;;;;;24.00;16.60;;;;;;;4.95;74.00;99708.08;106713;1263;73869;-38
2024/03/22 06:03:59;;;;;;;26.50;16.40;;;;;;;5.06;74.00;99704.19;106801;1263;66320;-37
2024/03/22 06:06:27;;;;;;;31.40;17.90;;;;;;;5.24;73.58;99708.13;106761;1263;71408;-38
2024/03/22 06:08:56;;;;;;;29.30;18.30;;;;;;;5.44;72.94;99709.48;106783;1263;60432;-37
2024/03/22 06:11:24;;;;;;;25.90;16.50;;;;;;;5.59;72.65;99709.65;106867;1263;60544;-38
2024/03/22 06:13:51;;;;;;;25.50;15.40;;;;;;;5.72;72.30;99707.66;106832;1267;73283;-38
2024/03/22 06:16:19;;;;;;;27.90;14.80;;;;;;;5.86;71.72;99709.65;106856;1263;67975;-38
2024/03/22 06:18:49;;;;;;;25.60;14.50;;;;;;;5.98;70.96;99707.71;106817;1263;73005;-38
2024/03/22 06:21:21;;;;;;;30.70;15.30;;;;;;;6.10;70.53;99705.85;106861;1262;60424;-38
2024/03/22 06:23:50;;;;;;;28.50;15.40;;;;;;;6.22;69.84;99706.67;106867;1263;60312;-38
2024/03/22 06:26:17;;;;;;;30.60;14.80;;;;;;;6.35;69.20;99708.49;106914;1262;73897;-38
2024/03/22 06:28:52;;;;;;;26.90;15.20;;;;;;;6.47;68.64;99709.23;106862;1263;67958;-38
2024/03/22 06:31:19;;;;;;;27.90;15.00;;;;;;;6.59;68.09;99705.55;106835;1263;72769;-38
2024/03/22 06:33:46;;;;;;;24.10;14.10;;;;;;;6.70;67.96;99708.85;106843;1263;60452;-38
2024/03/22 06:36:14;;;;;;;26.00;14.80;;;;;;;6.81;67.69;99705.91;106885;1263;60409;-38
2024/03/22 06:38:43;;;;;;;15.90;10.30;;;;;;;6.93;67.74;99703.30;106880;1262;76382;-38
2024/03/22 06:41:10;;;;;;;24.30;12.90;;;;;;;7.13;67.39;99704.19;106911;1263;67170;-38
2024/03/22 06:43:38;;;;;;;22.80;12.50;;;;;;;7.35;66.93;99706.58;106841;1263;71997;-38
2024/03/22 06:46:05;;;;;;;24.80;13.40;;;;;;;7.54;66.06;99705.94;106869;1263;60320;-38
2024/03/22 06:48:33;;;;;;;20.90;12.30;;;;;;;7.71;65.65;99706.55;106891;1263;60854;-38
2024/03/22 06:51:00;;;;;;;23.60;11.90;;;;;;;7.89;65.13;99709.04;106880;1267;76116;-38
2024/03/22 06:53:27;;;;;;;20.60;11.30;;;;;;;8.05;64.10;99709.61;106866;1263;66345;-38
2024/03/22 06:55:55;;;;;;;19.10;10.50;;;;;;;8.20;63.07;99707.82;106819;1263;71948;-38
2024/03/22 06:58:25;;;;;;;19.30;10.50;;;;;;;8.36;62.08;99709.11;106704;1263;60556;-38
2024/03/22 07:00:52;;;;;;;23.90;10.30;;;;;;;8.48;61.59;99704.60;106750;1263;59649;-38
2024/03/22 07:03:19;;;;;;;14.70;9.60;;;;;;;8.63;60.80;99700.13;106772;1263;73011;-38
2024/03/22 07:05:47;;;;;;;18.90;9.70;;;;;;;8.74;59.93;99697.70;106818;1262;66913;-38
2024/03/22 07:08:15;;;;;;;20.50;9.90;;;;;;;8.84;59.35;99701.24;106823;1262;72946;-38
2024/03/22 07:10:42;;;;;;;19.20;9.40;;;;;;;8.94;58.72;99704.75;106763;1263;61078;-38
2024/03/22 07:13:10;;;;;;;13.90;8.30;;;;;;;9.06;57.43;99702.77;106717;1262;60411;-38
2024/03/22 07:15:37;;;;;;;13.00;7.40;;;;;;;9.17;56.45;99703.49;106771;1263;73935;-38
2024/03/22 07:18:06;;;;;;;16.20;8.20;;;;;;;9.27;55.72;99699.75;106746;1263;66298;-38
2024/03/22 07:20:33;;;;;;;16.60;8.70;;;;;;;9.39;55.89;99700.52;106816;1263;72834;-38
2024/03/22 07:23:01;;;;;;;15.70;9.10;;;;;;;9.52;55.88;99699.25;106854;1262;60426;-38
2024/03/22 07:25:29;;;;;;;15.80;7.90;;;;;;;9.68;55.98;99699.80;106842;1263;60403;-38
2024/03/22 07:27:57;;;;;;;18.10;10.40;;;;;;;9.88;55.66;99700.79;106824;1263;76116;-38
2024/03/22 07:30:24;;;;;;;21.60;9.80;;;;;;;10.09;55.79;99703.06;106871;1263;67632;-38
2024/03/22 07:32:52;;;;;;;16.30;9.60;;;;;;;10.27;55.10;99697.36;106859;1263;74817;-38
2024/03/22 07:35:19;;;;;;;17.70;8.50;;;;;;;10.43;54.56;99697.84;106869;1263;60395;-38
2024/03/22 07:37:46;;;;;;;17.90;8.30;;;;;;;10.55;53.82;99696.59;106845;1263;60419;-38
2024/03/22 07:40:14;;;;;;;17.00;9.70;;;;;;;10.70;53.85;99694.93;106868;1263;74253;-38
2024/03/22 07:42:42;;;;;;;18.00;10.10;;;;;;;10.89;54.07;99688.39;106722;1263;66815;-38
2024/03/22 07:45:10;;;;;;;15.90;8.80;;;;;;;11.08;54.00;99690.06;106722;1263;71424;-38
2024/03/22 07:47:38;;;;;;;17.90;8.50;;;;;;;11.26;52.64;99688.11;106777;1262;60594;-38
2024/03/22 07:50:06;;;;;;;20.10;9.20;;;;;;;11.39;51.84;99689.48;106848;1263;60441;-38
2024/03/22 07:52:33;;;;;;;15.00;8.70;;;;;;;11.52;51.02;99682.77;106911;1261;73082;-37
2024/03/22 07:55:04;;;;;;;21.40;8.50;;;;;;;11.63;50.72;99686.88;106860;1263;66159;-37
2024/03/22 07:57:31;;;;;;;12.80;7.80;;;;;;;11.71;50.44;99672.61;106869;1263;71261;-37
2024/03/22 07:59:59;;;;;;;14.30;7.80;;;;;;;11.90;49.53;99682.05;106823;1263;60439;-38
2024/03/22 08:02:26;;;;;;;15.00;8.30;;;;;;;12.00;49.22;99686.89;106873;1262;60328;-38
2024/03/22 08:04:54;;;;;;;13.80;7.60;;;;;;;12.06;48.57;99680.10;106859;1263;72726;-38
2024/03/22 08:07:22;;;;;;;15.60;8.60;;;;;;;12.13;48.53;99683.73;106837;1267;68131;-38
2024/03/22 08:09:49;;;;;;;14.30;8.10;;;;;;;12.18;48.08;99679.85;106843;1263;72813;-38
2024/03/22 08:12:19;;;;;;;14.70;6.80;;;;;;;12.27;47.71;99677.67;106845;1263;60451;-38
2024/03/22 08:14:46;;;;;;;13.50;6.80;;;;;;;12.39;46.96;99674.85;106848;1263;60508;-38
2024/03/22 08:17:14;;;;;;;17.50;6.60;;;;;;;12.48;46.92;99658.52;106749;1263;72838;-38
2024/03/22 08:19:44;;;;;;;14.90;6.80;;;;;;;12.72;46.90;99666.89;106731;1263;67938;-38
2024/03/22 08:22:12;;;;;;;14.10;7.00;;;;;;;12.90;45.17;99660.23;106724;1262;73273;-38
2024/03/22 08:24:39;;;;;;;15.90;7.70;;;;;;;13.00;44.92;99658.30;106703;1263;61134;-38
2024/03/22 08:27:07;;;;;;;14.20;7.40;;;;;;;13.11;44.90;99658.35;106714;1262;60171;-38
2024/03/22 08:29:35;;;;;;;11.20;6.30;;;;;;;13.22;44.67;99653.63;106821;1263;76753;-38
2024/03/22 08:32:04;;;;;;;10.70;6.60;;;;;;;13.34;44.51;99648.56;106859;1263;68072;-38
2024/03/22 08:34:35;;;;;;;13.30;5.60;;;;;;;13.47;43.92;99644.98;106890;1263;71496;-38
2024/03/22 08:37:03;;;;;;;9.20;5.00;;;;;;;13.60;43.44;99644.20;106898;1269;62331;-38
2024/03/22 08:39:31;;;;;;;11.90;5.80;;;;;;;13.72;41.85;99638.11;106914;1263;61367;-38
2024/03/22 08:41:58;;;;;;;10.10;6.00;;;;;;;13.76;42.71;99639.92;106870;1263;73423;-38
2024/03/22 08:44:26;;;;;;;12.30;4.90;;;;;;;13.85;42.21;99641.90;106848;1263;66343;-39
2024/03/22 08:46:54;;;;;;;9.70;5.40;;;;;;;13.94;41.02;99639.96;106856;1263;71821;-38
2024/03/22 08:49:23;;;;;;;16.00;6.20;;;;;;;13.96;40.92;99641.77;106803;1263;59934;-39
2024/03/22 08:51:51;;;;;;;8.90;5.10;;;;;;;13.99;40.71;99639.31;106797;1263;61388;-38
2024/03/22 08:54:19;;;;;;;11.20;5.90;;;;;;;14.12;40.33;99635.77;106772;1263;74800;-38
2024/03/22 08:56:47;;;;;;;11.70;5.90;;;;;;;14.22;39.97;99635.86;106810;1263;68151;-38
2024/03/22 08:59:14;;;;;;;8.90;5.60;;;;;;;14.30;39.72;99629.38;106684;1266;70924;-38
2024/03/22 09:01:43;;;;;;;10.90;6.10;;;;;;;14.40;40.33;99628.63;106794;1263;61240;-38
2024/03/22 09:04:10;;;;;;;12.60;5.80;;;;;;;14.60;40.42;99625.36;106797;1262;61234;-38
2024/03/22 09:06:38;;;;;;;10.50;5.40;;;;;;;14.83;39.41;99621.90;106676;1263;77138;-39
2024/03/22 09:09:06;;;;;;;12.30;5.40;;;;;;;15.08;40.10;99617.44;106923;1260;68821;-39
2024/03/22 09:11:33;;;;;;;13.30;5.30;;;;;;;15.35;38.79;99614.35;106907;1260;72818;-39
2024/03/22 09:14:01;;;;;;;12.20;5.50;;;;;;;15.53;38.00;99617.17;106965;1263;61097;-39
2024/03/22 09:16:28;;;;;;;9.90;5.30;;;;;;;15.72;38.12;99614.65;106999;1259;61288;-39
2024/03/22 09:18:56;;;;;;;12.40;5.20;;;;;;;15.96;37.26;99616.27;107032;1260;74849;-39
2024/03/22 09:21:24;;;;;;;10.60;4.70;;;;;;;16.15;36.36;99614.85;107040;1260;68060;-39
2024/03/22 09:23:53;;;;;;;8.10;4.40;;;;;;;16.28;36.62;99609.39;107021;1260;74831;-39
2024/03/22 09:26:21;;;;;;;11.50;4.50;;;;;;;16.47;36.25;99603.13;107062;1260;61182;-39
2024/03/22 09:28:50;;;;;;;9.20;4.30;;;;;;;16.60;35.26;99609.61;107094;1260;61115;-39
2024/03/22 09:31:18;;;;;;;12.60;5.20;;;;;;;16.63;35.25;99605.64;106994;1258;73533;-39
2024/03/22 09:33:46;;;;;;;12.60;4.60;;;;;;;16.62;35.06;99603.84;106979;1259;67182;-39
2024/03/22 09:36:13;;;;;;;9.40;3.80;;;;;;;16.52;34.90;99606.94;107028;1259;72843;-39
2024/03/22 09:38:44;;;;;;;6.90;4.10;;;;;;;16.37;34.59;99602.42;107061;1260;61236;-39
2024/03/22 09:41:13;;;;;;;6.90;3.90;;;;;;;16.22;34.61;99601.34;107086;1260;60453;-39
2024/03/22 09:43:44;;;;;;;8.90;3.70;;;;;;;16.05;34.62;99599.62;106895;1260;75059;-39
2024/03/22 09:46:12;;;;;;;8.90;3.90;;;;;;;15.97;35.50;99595.16;106981;1260;68096;-39
2024/03/22 09:48:41;;;;;;;6.90;3.70;;;;;;;15.89;35.43;99596.71;106984;1263;74971;-39
2024/03/22 09:51:09;;;;;;;9.00;3.80;;;;;;;15.74;35.73;99596.53;107018;1264;60479;-39
2024/03/22 09:53:36;;;;;;;9.60;4.20;;;;;;;15.63;35.52;99594.09;106840;1259;61191;-39
2024/03/22 09:56:06;;;;;;;9.30;3.50;;;;;;;15.52;35.72;99591.80;106887;1258;75622;-39
2024/03/22 09:58:34;;;;;;;10.40;4.40;;;;;;;15.47;35.96;99591.60;106979;1260;68185;-40
2024/03/22 10:01:02;;;;;;;7.20;3.90;;;;;;;15.53;36.04;99588.05;107085;1262;72853;-40
2024/03/22 10:03:30;;;;;;;7.20;3.90;;;;;;;15.64;35.75;99579.17;107061;1260;61227;-40
2024/03/22 10:05:58;;;;;;;9.10;3.70;;;;;;;15.71;35.61;99572.63;107032;1257;60953;-40
2024/03/22 10:08:26;;;;;;;7.10;3.60;;;;;;;15.82;35.57;99567.86;107041;1257;76785;-40
2024/03/22 10:10:54;;;;;;;7.80;3.60;;;;;;;16.01;35.50;99571.10;107025;1259;68692;-40
2024/03/22 10:13:21;;;;;;;8.60;3.30;;;;;;;16.28;35.38;99561.38;107039;1260;71557;-39
2024/03/22 10:15:49;;;;;;;5.80;3.40;;;;;;;16.68;35.22;99561.59;107035;1260;62289;-40
2024/03/22 10:18:16;;;;;;;6.80;3.30;;;;;;;16.95;33.51;99555.65;107023;1257;61342;-40
2024/03/22 10:20:44;;;;;;;8.20;3.60;;;;;;;16.87;32.78;99555.98;106887;1257;73520;-40
2024/03/22 10:23:11;;;;;;;5.90;3.70;;;;;;;16.49;33.41;99560.27;106984;1257;66832;-40
2024/03/22 10:25:39;;;;;;;7.60;2.90;;;;;;;16.09;34.30;99567.64;107165;1262;74981;-40
2024/03/22 10:28:06;;;;;;;7.30;3.30;;;;;;;15.73;33.07;99555.38;106974;1259;60310;-40
2024/03/22 10:30:34;;;;;;;7.50;3.20;;;;;;;15.47;34.28;99563.50;107022;1260;61135;-40
2024/03/22 10:33:02;;;;;;;5.60;3.00;;;;;;;15.18;34.28;99559.98;106885;1258;76799;-40
2024/03/22 10:35:29;;;;;;;5.80;3.40;;;;;;;14.84;33.98;99552.96;106897;1260;66853;-40
2024/03/22 10:37:57;;;;;;;5.10;3.30;;;;;;;14.54;34.17;99550.63;107012;1260;72741;-40
2024/03/22 10:40:24;;;;;;;7.00;3.20;;;;;;;14.25;34.93;99548.39;107046;1259;61266;-40
2024/03/22 10:42:52;;;;;;;8.30;3.40;;;;;;;13.99;35.61;99549.98;107080;1257;61263;-40
2024/03/22 10:45:25;;;;;;;8.30;3.70;;;;;;;13.73;36.27;99546.80;107044;1260;73444;-40
2024/03/22 10:47:52;;;;;;;6.70;3.30;;;;;;;13.53;36.41;99552.14;107022;1260;67953;-40
2024/03/22 10:50:20;;;;;;;9.70;3.80;;;;;;;13.41;37.17;99548.81;106978;1262;71510;-40
2024/03/22 10:52:49;;;;;;;4.90;3.60;;;;;;;13.31;37.44;99548.17;107036;1259;61228;-40
2024/03/22 10:55:20;;;;;;;;;;;;;;;13.19;38.86;99548.35;107145;1257;61112;-40
2024/03/22 10:57:47;;;;;;;;;;;;;;;13.04;39.58;99548.84;107213;1257;74804;-39
2024/03/22 11:00:15;;;;;;;9.10;4.30;;;;;;;12.90;39.63;99552.33;107239;1257;67844;-39
2024/03/22 11:02:45;;;;;;;7.50;4.50;;;;;;;12.80;40.26;99543.88;107045;1262;71553;-39
2024/03/22 11:05:21;;;;;;;10.20;4.30;;;;;;;12.73;40.48;99540.30;107053;1260;61331;-40
2024/03/22 11:08:04;;;;;;;10.10;4.50;;;;;;;12.70;40.71;99539.16;107040;1260;61230;-39
2024/03/22 11:10:35;;;;;;;8.90;4.30;;;;;;;12.68;41.14;99535.88;107014;1257;75026;-40
2024/03/22 11:13:03;;;;;;;8.30;4.10;;;;;;;12.67;41.04;99534.85;107048;1257;69782;-39
2024/03/22 11:15:31;;;;;;;10.20;4.60;;;;;;;12.68;41.30;99533.00;107092;1257;71921;-39
2024/03/22 11:17:59;;;;;;;8.10;4.60;;;;;;;12.88;41.66;99534.73;107194;1257;61138;-39
2024/03/22 11:20:27;;;;;;;10.00;4.00;;;;;;;13.33;41.45;99539.23;107122;1257;61263;-40
2024/03/22 11:22:56;;;;;;;7.20;4.00;;;;;;;13.96;40.62;99529.79;107091;1257;73817;-39
2024/03/22 11:25:23;;;;;;;9.30;4.10;;;;;;;14.43;38.97;99526.08;107198;1257;70206;-39